createdAt,value
2023-02-19T00:00:40.711Z,9.90
2023-02-19T00:03:11.624Z,10.43
2023-02-19T00:05:42.737Z,10.27
2023-02-19T00:08:13.535Z,9.15
2023-02-19T00:10:45.711Z,11.02
2023-02-19T00:13:17.118Z,8.38
2023-02-19T00:15:48.302Z,10.07
2023-02-19T00:18:19.598Z,9.65
2023-02-19T00:20:50.567Z,8.75
2023-02-19T00:23:21.688Z,8.55
2023-02-19T00:25:52.813Z,9.73
2023-02-19T00:28:23.894Z,8.35
2023-02-19T00:30:55.128Z,8.07
2023-02-19T00:33:26.531Z,7.35
2023-02-19T00:35:57.604Z,7.45
2023-02-19T00:38:28.967Z,6.88
2023-02-19T00:41:03.381Z,7.07
2023-02-19T00:46:09.659Z,5.97
2023-02-19T00:48:41.019Z,6.70
2023-02-19T00:51:12.681Z,6.00
2023-02-19T00:53:44.781Z,5.65
2023-02-19T00:56:16.092Z,6.32
2023-02-19T00:58:47.825Z,5.75
2023-02-19T01:01:20.057Z,6.38
2023-02-19T01:03:51.744Z,5.93
2023-02-19T01:06:23.476Z,5.85
2023-02-19T01:08:55.396Z,6.18
2023-02-19T01:11:26.541Z,6.40
2023-02-19T01:14:02.511Z,5.70
2023-02-19T01:16:34.343Z,6.10
2023-02-19T01:19:13.415Z,7.50
2023-02-19T01:21:46.659Z,6.45
2023-02-19T01:24:18.431Z,7.60
2023-02-19T01:26:51.535Z,6.90
2023-02-19T01:29:22.879Z,6.75
2023-02-19T01:32:04.473Z,6.47
2023-02-19T01:34:36.138Z,7.82
2023-02-19T01:37:29.408Z,6.75
2023-02-19T01:42:32.612Z,7.55
2023-02-19T01:45:40.832Z,7.00
2023-02-19T01:48:15.379Z,7.32
2023-02-19T01:51:03.076Z,7.95
2023-02-19T01:53:39.800Z,7.40
2023-02-19T01:56:11.883Z,7.00
2023-02-19T01:58:43.657Z,8.45
2023-02-19T02:01:15.558Z,9.05
2023-02-19T02:03:50.657Z,8.27
2023-02-19T02:06:32.728Z,7.15
2023-02-19T02:09:21.932Z,7.28
2023-02-19T02:12:14.329Z,6.85
2023-02-19T02:14:49.056Z,7.80
2023-02-19T02:17:55.410Z,7.03
2023-02-19T02:20:45.136Z,8.07
2023-02-19T02:23:32.842Z,7.40
2023-02-19T02:26:35.553Z,7.60
2023-02-19T02:29:20.792Z,7.40
2023-02-19T02:32:17.759Z,7.78
2023-02-19T02:34:55.967Z,7.72
2023-02-19T02:37:31.420Z,7.85
2023-02-19T02:40:05.130Z,8.32
2023-02-19T02:42:37.402Z,7.43
2023-02-19T02:45:39.879Z,7.70
2023-02-19T02:48:55.409Z,8.50
2023-02-19T02:51:37.172Z,8.75
2023-02-19T02:54:40.389Z,8.40
2023-02-19T02:57:16.699Z,9.80
2023-02-19T02:59:53.803Z,9.10
2023-02-19T03:02:30.907Z,9.35
2023-02-19T03:05:27.119Z,9.88
2023-02-19T03:08:12.411Z,8.70
2023-02-19T03:11:30.058Z,8.93
2023-02-19T03:15:03.380Z,9.02
2023-02-19T03:18:19.433Z,8.90
2023-02-19T03:20:54.938Z,8.60
2023-02-19T03:23:47.893Z,8.27
2023-02-19T03:26:21.284Z,8.65
2023-02-19T03:29:20.831Z,9.13
2023-02-19T03:32:03.647Z,8.93
2023-02-19T03:34:42.663Z,9.20
2023-02-19T03:37:30.902Z,9.20
2023-02-19T03:40:03.598Z,10.15
2023-02-19T03:42:42.064Z,9.07
2023-02-19T03:45:37.162Z,9.07
2023-02-19T03:48:36.884Z,10.05
2023-02-19T03:51:20.273Z,9.45
2023-02-19T03:54:04.662Z,10.35
2023-02-19T03:57:05.403Z,13.70
2023-02-19T04:00:00.275Z,12.45
2023-02-19T04:03:09.272Z,12.95
2023-02-19T04:05:52.637Z,83.70
2023-02-19T04:08:43.171Z,16.10
2023-02-19T04:14:14.104Z,25.95
2023-02-19T04:16:51.842Z,37.05
2023-02-19T04:19:47.057Z,11.57
2023-02-19T04:22:20.882Z,12.10
2023-02-19T04:24:56.402Z,12.32
2023-02-19T04:27:30.597Z,13.90
2023-02-19T04:30:02.079Z,12.50
2023-02-19T04:32:33.408Z,12.10
2023-02-19T04:35:07.465Z,12.27
2023-02-19T04:37:41.704Z,11.82
2023-02-19T04:43:03.859Z,12.15
2023-02-19T04:45:35.096Z,12.45
2023-02-19T04:48:31.383Z,12.15
2023-02-19T04:51:06.645Z,11.43
2023-02-19T04:53:39.223Z,12.50
2023-02-19T04:59:03.737Z,11.80
2023-02-19T05:01:35.328Z,12.75
2023-02-19T05:04:06.922Z,12.18
2023-02-19T05:06:39.343Z,12.35
2023-02-19T05:09:30.385Z,12.68
2023-02-19T05:12:02.858Z,13.50
2023-02-19T05:14:34.296Z,12.48
2023-02-19T05:22:56.830Z,12.63
2023-02-19T05:25:28.093Z,12.60
2023-02-19T05:28:18.610Z,13.23
2023-02-19T05:30:55.423Z,13.95
2023-02-19T05:36:26.820Z,13.25
2023-02-19T05:39:00.137Z,13.40
2023-02-19T05:41:32.861Z,14.27
2023-02-19T05:44:04.130Z,10.75
2023-02-19T05:46:54.906Z,12.10
2023-02-19T05:49:28.858Z,13.95
2023-02-19T05:52:01.095Z,11.85
2023-02-19T05:54:35.163Z,10.48
2023-02-19T05:57:06.281Z,9.13
2023-02-19T05:59:58.395Z,10.82
2023-02-19T06:02:29.569Z,11.52
2023-02-19T06:05:01.076Z,14.88
2023-02-19T06:07:37.033Z,14.30
2023-02-19T06:10:09.525Z,13.30
2023-02-19T06:12:41.759Z,14.32
2023-02-19T06:15:25.638Z,14.30
2023-02-19T06:18:09.479Z,15.20
2023-02-19T06:20:46.707Z,14.65
2023-02-19T06:23:17.929Z,12.27
2023-02-19T06:25:49.066Z,11.32
2023-02-19T06:28:20.348Z,10.98
2023-02-19T06:31:13.590Z,9.30
2023-02-19T06:33:45.303Z,10.15
2023-02-19T06:36:27.625Z,10.95
2023-02-19T06:39:03.041Z,11.77
2023-02-19T06:41:34.668Z,12.23
2023-02-19T06:44:08.162Z,10.80
2023-02-19T06:46:40.112Z,14.65
2023-02-19T06:49:12.554Z,12.43
2023-02-19T06:51:44.432Z,13.95
2023-02-19T06:54:15.938Z,14.90
2023-02-19T06:56:47.473Z,16.00
2023-02-19T06:59:18.901Z,16.17
2023-02-19T07:01:49.952Z,15.40
2023-02-19T07:04:21.145Z,15.15
2023-02-19T07:07:12.399Z,13.68
2023-02-19T07:09:44.285Z,9.82
2023-02-19T07:12:16.430Z,9.13
2023-02-19T07:14:49.811Z,9.20
2023-02-19T07:17:22.195Z,9.38
2023-02-19T07:19:53.250Z,9.90
2023-02-19T07:22:24.413Z,9.10
2023-02-19T07:25:15.182Z,9.27
2023-02-19T07:27:46.468Z,10.27
2023-02-19T07:30:17.660Z,10.05
2023-02-19T07:32:48.906Z,15.10
2023-02-19T07:35:20.028Z,18.98
2023-02-19T07:38:10.734Z,20.00
2023-02-19T07:41:05.799Z,16.80
2023-02-19T07:43:42.391Z,18.83
2023-02-19T07:46:16.260Z,19.15
2023-02-19T07:48:48.800Z,17.48
2023-02-19T07:51:22.063Z,19.70
2023-02-19T07:53:54.187Z,18.90
2023-02-19T07:59:12.093Z,17.92
2023-02-19T08:02:02.220Z,16.80
2023-02-19T08:07:23.042Z,16.33
2023-02-19T08:10:15.997Z,18.20
2023-02-19T08:13:08.029Z,18.40
2023-02-19T08:15:50.019Z,18.35
2023-02-19T08:18:23.743Z,14.45
2023-02-19T08:20:58.891Z,18.17
2023-02-19T08:23:32.267Z,16.10
2023-02-19T08:26:04.595Z,15.15
2023-02-19T08:28:35.826Z,13.18
2023-02-19T08:31:09.907Z,14.50
2023-02-19T08:36:14.276Z,15.48
2023-02-19T08:38:46.728Z,13.98
2023-02-19T08:41:18.112Z,15.45
2023-02-19T08:43:49.087Z,13.65
2023-02-19T08:46:20.594Z,13.60
2023-02-19T08:48:52.940Z,12.77
2023-02-19T08:51:24.409Z,15.52
2023-02-19T08:53:57.769Z,13.55
2023-02-19T08:56:32.036Z,12.95
2023-02-19T08:59:03.388Z,13.32
2023-02-19T09:01:34.778Z,13.02
2023-02-19T09:04:07.017Z,12.48
2023-02-19T09:06:40.002Z,12.07
2023-02-19T09:09:11.782Z,14.23
2023-02-19T09:11:43.244Z,14.05
2023-02-19T09:14:15.728Z,12.70
2023-02-19T09:16:49.214Z,12.05
2023-02-19T09:19:21.269Z,13.52
2023-02-19T09:21:52.432Z,16.08
2023-02-19T09:24:24.716Z,19.52
2023-02-19T09:26:57.134Z,15.10
2023-02-19T09:32:35.610Z,20.65
2023-02-19T09:35:06.838Z,17.30
2023-02-19T09:37:37.796Z,51.67
2023-02-19T09:40:09.238Z,30.20
2023-02-19T09:42:45.725Z,21.38
2023-02-19T09:45:26.970Z,24.83
2023-02-19T09:48:00.359Z,21.73
2023-02-19T09:50:53.228Z,22.48
2023-02-19T09:53:35.559Z,19.85
2023-02-19T09:56:29.341Z,23.67
2023-02-19T09:59:02.392Z,20.13
2023-02-19T10:01:39.790Z,18.63
2023-02-19T10:04:14.429Z,19.02
2023-02-19T10:06:46.349Z,17.42
2023-02-19T10:09:30.745Z,19.98
2023-02-19T10:15:29.268Z,18.85
2023-02-19T10:18:23.338Z,22.33
2023-02-19T10:21:26.144Z,22.17
2023-02-19T10:24:03.986Z,24.92
2023-02-19T10:26:58.765Z,24.10
2023-02-19T10:29:52.758Z,19.50
2023-02-19T10:32:27.544Z,16.33
2023-02-19T10:38:35.732Z,27.85
2023-02-19T10:41:26.733Z,23.38
2023-02-19T10:44:16.734Z,23.67
2023-02-19T10:46:54.434Z,33.28
2023-02-19T10:49:29.847Z,39.10
2023-02-19T10:52:39.570Z,22.98
2023-02-19T10:55:23.197Z,29.45
2023-02-19T10:57:54.560Z,26.27
2023-02-19T11:03:23.926Z,44.30
2023-02-19T11:06:04.360Z,123.93
2023-02-19T11:09:07.786Z,37.78
2023-02-19T11:11:41.727Z,40.20
2023-02-19T11:14:23.007Z,27.98
2023-02-19T11:17:01.156Z,27.10
2023-02-19T11:19:39.898Z,23.92
2023-02-19T11:22:42.032Z,24.45
2023-02-19T11:25:19.508Z,23.10
2023-02-19T11:28:23.116Z,23.52
2023-02-19T11:30:56.087Z,23.45
2023-02-19T11:33:29.364Z,23.13
2023-02-19T11:36:24.704Z,21.23
2023-02-19T11:39:18.624Z,23.08
2023-02-19T11:42:13.999Z,22.90
2023-02-19T11:45:12.142Z,24.55
2023-02-19T11:48:13.668Z,25.00
2023-02-19T11:51:14.588Z,21.75
2023-02-19T12:00:31.649Z,23.40
2023-02-19T12:03:03.768Z,22.27
2023-02-19T12:08:45.183Z,23.85
2023-02-19T12:11:36.077Z,23.60
2023-02-19T12:14:37.374Z,21.27
2023-02-19T12:17:37.416Z,22.60
2023-02-19T12:20:35.376Z,24.15
2023-02-19T12:23:33.102Z,23.35
2023-02-19T12:26:44.732Z,23.27
2023-02-19T12:30:01.390Z,24.30
2023-02-19T12:36:27.328Z,29.95
2023-02-19T12:42:35.292Z,23.83
2023-02-19T12:45:49.698Z,23.50
2023-02-19T12:48:23.663Z,24.83
2023-02-19T12:51:07.469Z,23.85
2023-02-19T12:54:04.360Z,24.75
2023-02-19T12:56:51.507Z,26.95
2023-02-19T13:00:10.578Z,27.50
2023-02-19T13:02:57.004Z,44.58
2023-02-19T13:06:12.750Z,29.85
2023-02-19T13:09:06.517Z,25.70
2023-02-19T13:12:12.376Z,27.98
2023-02-19T13:14:48.600Z,25.10
2023-02-19T13:17:29.938Z,27.27
2023-02-19T13:20:11.292Z,26.67
2023-02-19T13:23:44.193Z,27.65
2023-02-19T13:26:53.831Z,29.40
2023-02-19T13:30:05.096Z,26.48
2023-02-19T13:33:04.912Z,25.77
2023-02-19T13:35:57.007Z,26.15
2023-02-19T13:38:30.380Z,27.05
2023-02-19T13:41:03.990Z,27.08
2023-02-19T13:44:05.420Z,26.10
2023-02-19T13:46:48.123Z,27.15
2023-02-19T13:49:29.567Z,27.73
2023-02-19T13:55:51.591Z,26.58
2023-02-19T13:58:56.713Z,26.27
2023-02-19T14:04:42.192Z,27.33
2023-02-19T14:07:13.475Z,27.17
2023-02-19T14:09:48.561Z,28.02
2023-02-19T14:12:21.332Z,27.30
2023-02-19T14:15:35.492Z,25.40
2023-02-19T14:18:48.173Z,25.77
2023-02-19T14:21:44.894Z,26.08
2023-02-19T14:24:19.823Z,26.95
2023-02-19T14:26:51.199Z,26.55
2023-02-19T14:29:22.719Z,26.88
2023-02-19T14:32:23.385Z,27.02
2023-02-19T14:34:55.670Z,25.85
2023-02-19T14:37:28.434Z,29.88
2023-02-19T14:40:00.977Z,29.45
2023-02-19T14:42:35.793Z,26.33
2023-02-19T14:45:11.078Z,25.77
2023-02-19T14:47:44.166Z,28.10
2023-02-19T14:50:30.576Z,26.05
2023-02-19T14:53:06.428Z,23.20
2023-02-19T14:58:43.966Z,25.27
2023-02-19T15:01:46.599Z,27.02
2023-02-19T15:04:39.341Z,25.85
2023-02-19T15:07:15.688Z,26.15
2023-02-19T15:09:51.026Z,26.98
2023-02-19T15:12:28.691Z,27.45
2023-02-19T15:15:04.672Z,24.88
2023-02-19T15:17:42.848Z,26.52
2023-02-19T15:20:24.865Z,26.48
2023-02-19T15:22:57.842Z,25.83
2023-02-19T15:25:46.046Z,24.75
2023-02-19T15:28:37.807Z,24.90
2023-02-19T15:31:18.357Z,24.80
2023-02-19T15:33:54.636Z,25.40
2023-02-19T15:36:36.344Z,25.77
2023-02-19T15:39:18.635Z,24.90
2023-02-19T15:41:58.534Z,25.40
2023-02-19T15:44:52.162Z,23.52
2023-02-19T15:47:29.676Z,23.90
2023-02-19T15:50:45.708Z,25.30
2023-02-19T15:53:18.881Z,25.75
2023-02-19T15:56:08.525Z,26.17
2023-02-19T15:59:03.563Z,25.40
2023-02-19T16:01:43.675Z,25.65
2023-02-19T16:04:19.371Z,26.52
2023-02-19T16:07:05.394Z,25.42
2023-02-19T16:09:40.600Z,25.67
2023-02-19T16:12:26.617Z,25.30
2023-02-19T16:14:58.853Z,25.52
2023-02-19T16:17:45.275Z,25.35
2023-02-19T16:20:36.565Z,25.52
2023-02-19T16:23:16.888Z,26.52
2023-02-19T16:25:54.248Z,24.55
2023-02-19T16:28:29.071Z,24.65
2023-02-19T16:31:05.184Z,25.23
2023-02-19T16:33:56.188Z,24.50
2023-02-19T16:36:43.167Z,24.75
2023-02-19T16:39:20.375Z,24.73
2023-02-19T16:42:16.273Z,24.55
2023-02-19T16:44:51.889Z,25.00
2023-02-19T16:47:31.172Z,24.80
2023-02-19T16:50:06.761Z,22.75
2023-02-19T16:52:40.881Z,24.85
2023-02-19T16:55:16.143Z,25.20
2023-02-19T16:57:47.448Z,25.45
2023-02-19T17:00:24.385Z,24.60
2023-02-19T17:02:59.913Z,23.95
2023-02-19T17:05:52.373Z,25.52
2023-02-19T17:08:45.648Z,24.25
2023-02-19T17:11:36.628Z,26.10
2023-02-19T17:14:07.930Z,24.50
2023-02-19T17:16:42.124Z,23.50
2023-02-19T17:19:19.638Z,25.58
2023-02-19T17:21:55.817Z,24.50
2023-02-19T17:24:26.968Z,26.30
2023-02-19T17:27:02.033Z,24.67
2023-02-19T17:29:35.604Z,26.33
2023-02-19T17:32:07.316Z,23.95
2023-02-19T17:34:38.540Z,25.92
2023-02-19T17:37:09.793Z,26.67
2023-02-19T17:39:47.842Z,24.73
2023-02-19T17:42:23.868Z,24.90
2023-02-19T17:44:55.300Z,24.83
2023-02-19T17:47:34.235Z,23.63
2023-02-19T17:50:08.556Z,24.73
2023-02-19T17:52:39.714Z,25.05
2023-02-19T17:55:13.345Z,24.80
2023-02-19T17:58:03.951Z,24.67
2023-02-19T18:00:38.185Z,25.85
2023-02-19T18:03:09.696Z,26.77
2023-02-19T18:05:40.938Z,26.83
2023-02-19T18:08:12.373Z,24.80
2023-02-19T18:10:44.245Z,25.40
2023-02-19T18:16:00.112Z,25.58
2023-02-19T18:18:31.989Z,24.92
2023-02-19T18:21:03.109Z,24.48
2023-02-19T18:23:34.382Z,24.60
2023-02-19T18:26:08.226Z,25.20
2023-02-19T18:28:39.840Z,24.00
2023-02-19T18:31:12.036Z,25.50
2023-02-19T18:33:43.206Z,24.15
2023-02-19T18:36:16.389Z,25.00
2023-02-19T18:38:48.388Z,25.63
2023-02-19T18:41:22.204Z,25.23
2023-02-19T18:46:24.770Z,22.27
2023-02-19T18:48:55.801Z,24.50
2023-02-19T18:51:26.946Z,24.13
2023-02-19T18:53:57.875Z,24.35
2023-02-19T18:56:31.073Z,25.38
2023-02-19T18:59:02.435Z,25.00
2023-02-19T19:01:33.486Z,25.00
2023-02-19T19:04:04.597Z,24.52
2023-02-19T19:06:37.497Z,26.05
2023-02-19T19:09:08.732Z,26.42
2023-02-19T19:11:40.172Z,27.33
2023-02-19T19:14:11.486Z,24.77
2023-02-19T19:16:43.493Z,25.08
2023-02-19T19:19:15.451Z,24.98
2023-02-19T19:21:46.714Z,24.25
2023-02-19T19:24:17.699Z,24.88
2023-02-19T19:26:49.153Z,26.08
2023-02-19T19:29:22.557Z,24.90
2023-02-19T19:31:53.586Z,26.43
2023-02-19T19:34:24.633Z,26.30
2023-02-19T19:36:55.524Z,24.23
2023-02-19T19:39:26.603Z,24.10
2023-02-19T19:41:58.701Z,25.48
2023-02-19T19:44:29.637Z,25.15
2023-02-19T19:47:00.344Z,25.33
2023-02-19T19:49:31.297Z,27.58
2023-02-19T19:52:22.024Z,25.75
2023-02-19T19:54:56.827Z,26.02
2023-02-19T19:57:27.566Z,24.85
2023-02-19T19:59:58.281Z,24.80
2023-02-19T20:02:29.260Z,26.05
2023-02-19T20:05:00.263Z,25.13
2023-02-19T20:07:31.376Z,25.88
2023-02-19T20:10:02.340Z,26.15
2023-02-19T20:12:33.367Z,25.58
2023-02-19T20:15:04.184Z,27.70
2023-02-19T20:17:37.661Z,25.65
2023-02-19T20:20:09.317Z,26.38
2023-02-19T20:22:40.765Z,25.00
2023-02-19T20:25:12.685Z,26.65
2023-02-19T20:27:44.079Z,26.45
2023-02-19T20:30:17.051Z,27.42
2023-02-19T20:32:48.325Z,27.13
2023-02-19T20:35:20.451Z,24.60
2023-02-19T20:37:51.647Z,28.42
2023-02-19T20:40:22.379Z,27.20
2023-02-19T20:42:53.295Z,26.25
2023-02-19T20:45:24.318Z,27.85
2023-02-19T20:47:55.339Z,28.33
2023-02-19T20:50:27.235Z,27.08
2023-02-19T20:52:58.216Z,26.83
2023-02-19T20:55:29.637Z,27.40
2023-02-19T20:58:00.968Z,28.25
2023-02-19T21:00:32.040Z,25.95
2023-02-19T21:03:03.000Z,27.75
2023-02-19T21:05:34.109Z,28.42
2023-02-19T21:08:05.208Z,26.67
2023-02-19T21:10:36.438Z,26.30
2023-02-19T21:13:10.669Z,27.40
2023-02-19T21:15:41.647Z,27.00
2023-02-19T21:18:12.550Z,28.58
2023-02-19T21:20:43.374Z,29.02
2023-02-19T21:23:15.541Z,28.83
2023-02-19T21:25:46.331Z,28.20
2023-02-19T21:28:17.773Z,29.77
2023-02-19T21:30:49.021Z,30.23
2023-02-19T21:33:20.024Z,28.70
2023-02-19T21:35:50.792Z,32.20
2023-02-19T21:38:21.687Z,31.13
2023-02-19T21:40:52.997Z,30.05
2023-02-19T21:43:23.757Z,33.40
2023-02-19T21:45:54.454Z,33.08
2023-02-19T21:48:25.714Z,30.40
2023-02-19T21:50:56.905Z,26.70
2023-02-19T21:53:28.190Z,29.05
2023-02-19T21:56:00.264Z,31.60
2023-02-19T21:58:31.241Z,30.20
2023-02-19T22:01:02.279Z,30.33
2023-02-19T22:03:33.828Z,29.67
2023-02-19T22:06:04.638Z,29.30
2023-02-19T22:08:35.578Z,29.05
2023-02-19T22:11:06.685Z,25.27
2023-02-19T22:13:37.747Z,27.90
2023-02-19T22:16:08.750Z,30.15
2023-02-19T22:18:39.895Z,28.80
2023-02-19T22:21:10.854Z,30.23
2023-02-19T22:23:41.916Z,29.35
2023-02-19T22:26:20.096Z,30.40
2023-02-19T22:28:51.798Z,29.15
2023-02-19T22:31:26.155Z,27.58
2023-02-19T22:33:58.847Z,29.83
2023-02-19T22:36:35.028Z,30.98
2023-02-19T22:39:07.899Z,30.35
2023-02-19T22:41:44.916Z,29.17
2023-02-19T22:44:16.159Z,32.05
2023-02-19T22:46:53.544Z,31.92
2023-02-19T22:49:25.579Z,32.20
2023-02-19T22:52:07.576Z,31.17
2023-02-19T22:54:39.036Z,32.55
2023-02-19T22:57:10.027Z,31.90
2023-02-19T22:59:41.258Z,32.65
2023-02-19T23:02:13.577Z,30.98
2023-02-19T23:04:44.385Z,31.17
2023-02-19T23:07:15.289Z,30.52
2023-02-19T23:09:47.509Z,30.70
2023-02-19T23:12:19.810Z,30.75
2023-02-19T23:14:50.871Z,32.80
2023-02-19T23:17:21.685Z,30.15
2023-02-19T23:19:52.713Z,32.80
2023-02-19T23:22:23.895Z,29.15
2023-02-19T23:24:54.881Z,27.67
2023-02-19T23:27:26.002Z,31.60
2023-02-19T23:29:57.809Z,32.53
2023-02-19T23:32:28.815Z,32.95
2023-02-19T23:34:59.519Z,28.88
2023-02-19T23:37:30.468Z,30.80
2023-02-19T23:40:01.192Z,32.38
2023-02-19T23:42:32.987Z,31.55
2023-02-19T23:45:04.141Z,30.92
2023-02-19T23:47:35.180Z,30.85
2023-02-19T23:50:06.141Z,32.15
2023-02-19T23:52:37.119Z,32.85
2023-02-19T23:55:08.581Z,32.15
2023-02-19T23:57:39.648Z,31.73
